Time;durP1;ratioP1;P1;durP2;ratioP2;P2;SDS_P1;SDS_P2;PMS_P1;PMS_P2;Temp;Humidity;BMP_temperature;BMP_pressure;BME280_temperature;BME280_humidity;BME280_pressure;Samples;Min_cycle;Max_cycle;Signal;HPM_P1;HPM_P2
2023/01/02 00:00:22;;;;;;;;;8.00;8.00;;;;;14.89;100.00;100827.97;5081772;28;46494;-80
2023/01/02 00:02:48;;;;;;;;;8.67;8.67;;;;;15.06;100.00;100847.19;5063487;28;47319;-81
2023/01/02 00:05:13;;;;;;;;;8.67;8.67;;;;;14.80;100.00;100795.22;5082322;28;45378;-80
2023/01/02 00:07:38;;;;;;;;;6.67;6.67;;;;;15.07;100.00;100843.47;5086174;27;45369;-81
2023/01/02 00:10:04;;;;;;;;;8.00;7.00;;;;;14.86;100.00;100798.94;5081832;28;45409;-80
2023/01/02 00:12:30;;;;;;;;;7.67;7.33;;;;;15.14;100.00;100846.97;5081843;28;45501;-80
2023/01/02 00:14:55;;;;;;;;;7.00;7.00;;;;;14.97;100.00;100814.41;5081431;28;45330;-80
2023/01/02 00:17:20;;;;;;;;;9.00;8.33;;;;;14.96;100.00;100825.31;5083983;28;45295;-80
2023/01/02 00:19:46;;;;;;;;;6.67;6.67;;;;;15.09;100.00;100849.44;5083830;28;45232;-79
2023/01/02 00:22:11;;;;;;;;;9.67;8.67;;;;;15.11;100.00;100849.22;5081594;28;45332;-80
2023/01/02 00:24:36;;;;;;;;;7.33;6.67;;;;;15.07;100.00;100846.16;5081418;28;45278;-81
2023/01/02 00:27:02;;;;;;;;;9.00;9.00;;;;;15.18;100.00;100858.13;5081800;28;45191;-80
2023/01/02 00:29:27;;;;;;;;;8.00;6.33;;;;;15.20;100.00;100866.75;5062794;28;45479;-81
2023/01/02 00:31:53;;;;;;;;;6.00;5.67;;;;;15.12;100.00;100851.72;5081506;27;45279;-79
2023/01/02 00:34:18;;;;;;;;;6.67;5.33;;;;;14.95;100.00;100829.84;5064598;28;45673;-80
2023/01/02 00:36:43;;;;;;;;;5.67;5.67;;;;;15.19;100.00;100872.31;5084844;28;45280;-78
2023/01/02 00:39:09;;;;;;;;;9.00;9.00;;;;;15.10;100.00;100856.47;5081858;28;45755;-77
2023/01/02 00:41:34;;;;;;;;;8.00;7.67;;;;;15.17;100.00;100863.69;5083086;28;46207;-77
2023/01/02 00:43:59;;;;;;;;;6.67;5.67;;;;;15.06;100.00;100847.19;5081506;28;45205;-80
2023/01/02 00:46:25;;;;;;;;;8.00;7.00;;;;;14.95;100.00;100829.84;5082352;27;45441;-79
2023/01/02 00:48:50;;;;;;;;;8.67;7.67;;;;;15.09;100.00;100853.97;5064324;28;45920;-80
2023/01/02 00:51:16;;;;;;;;;6.67;6.00;;;;;15.04;100.00;100843.03;5081658;28;45358;-80
2023/01/02 00:53:41;;;;;;;;;8.00;5.33;;;;;15.05;100.00;100842.03;5063354;28;46003;-80
2023/01/02 00:56:06;;;;;;;;;7.67;7.67;;;;;15.04;100.00;100856.41;5065506;28;45412;-80
2023/01/02 00:58:32;;;;;;;;;5.67;5.00;;;;;15.07;100.00;100864.06;5065492;28;45804;-79
2023/01/02 01:00:57;;;;;;;;;7.67;7.33;;;;;14.99;100.00;100863.22;5084982;28;45618;-79
2023/01/02 01:03:22;;;;;;;;;7.67;7.00;;;;;15.02;100.00;100864.66;5082849;28;45315;-79
2023/01/02 01:05:48;;;;;;;;;6.00;6.00;;;;;15.01;100.00;100860.31;5065496;27;45533;-79
2023/01/02 01:08:13;;;;;;;;;7.00;7.00;;;;;14.99;100.00;100857.84;5065895;28;46346;-80
2023/01/02 01:10:38;;;;;;;;;6.00;6.00;;;;;14.92;100.00;100854.34;5083252;28;46783;-79
2023/01/02 01:13:04;;;;;;;;;6.67;6.00;;;;;15.04;100.00;100867.13;5080836;28;45337;-80
2023/01/02 01:15:31;;;;;;;;;5.00;4.33;;;;;14.99;100.00;100865.03;5081905;28;45303;-80
2023/01/02 01:17:57;;;;;;;;;7.00;6.67;;;;;14.92;100.00;100851.66;5081109;28;45300;-80
2023/01/02 01:20:22;;;;;;;;;6.33;6.33;;;;;14.90;100.00;100853.69;5083333;28;45319;-79
2023/01/02 01:22:48;;;;;;;;;10.00;8.67;;;;;14.83;100.00;100853.69;5081778;28;45268;-79
2023/01/02 01:25:13;;;;;;;;;5.50;5.00;;;;;14.75;100.00;100835.09;5083975;28;45480;-79
2023/01/02 01:27:38;;;;;;;;;7.67;6.33;;;;;14.85;100.00;100872.22;5065491;28;47578;-79
2023/01/02 01:30:05;;;;;;;;;6.00;6.00;;;;;14.71;100.00;100853.41;5065074;28;47630;-78
2023/01/02 01:32:31;;;;;;;;;5.00;5.00;;;;;14.68;100.00;100861.00;5072821;28;45262;-78
2023/01/02 01:34:56;;;;;;;;;5.00;5.00;;;;;14.68;100.00;100869.84;5084535;28;45398;-78
2023/01/02 01:37:21;;;;;;;;;4.00;4.00;;;;;14.69;100.00;100882.19;5085620;28;45402;-78
2023/01/02 01:39:47;;;;;;;;;6.67;6.00;;;;;14.68;100.00;100888.56;5086327;28;46128;-79
2023/01/02 01:42:13;;;;;;;;;4.00;4.00;;;;;14.68;100.00;100911.81;5087126;28;45342;-78
2023/01/02 01:44:53;;;;;;;;;5.00;4.00;;;;;14.55;100.00;100899.19;5087105;28;45360;-78
2023/01/02 01:47:46;;;;;;;;;4.67;3.00;;;;;14.61;100.00;100903.75;5087740;28;45476;-78
2023/01/02 01:50:34;;;;;;;;;5.33;4.00;;;;;14.59;100.00;100911.16;5068434;28;48596;-78
2023/01/02 01:53:11;;;;;;;;;2.00;2.00;;;;;14.51;100.00;100894.25;5086707;28;45258;-79
2023/01/02 01:55:48;;;;;;;;;3.00;3.00;;;;;14.51;100.00;100898.75;5068490;28;45417;-78
2023/01/02 01:58:23;;;;;;;;;3.00;3.00;;;;;14.39;100.00;100882.44;5085659;28;45245;-78
2023/01/02 02:00:49;;;;;;;;;3.00;3.00;;;;;14.40;100.00;100892.13;5068865;28;48168;-78
2023/01/02 02:03:19;;;;;;;;;2.67;2.33;;;;;14.37;100.00;100904.00;5061773;28;46180;-79
2023/01/02 02:05:46;;;;;;;;;0.00;0.00;;;;;14.45;100.00;100915.56;5048494;27;45481;-78
2023/01/02 02:08:20;;;;;;;;;3.33;3.33;;;;;14.39;100.00;100917.19;5066665;28;47465;-78
2023/01/02 02:10:46;;;;;;;;;3.67;2.67;;;;;14.40;100.00;100932.22;5073247;28;45339;-78
2023/01/02 02:13:13;;;;;;;;;2.33;2.00;;;;;14.36;100.00;100923.75;5083188;28;45386;-78
2023/01/02 02:15:56;;;;;;;;;1.00;1.00;;;;;14.30;100.00;100919.19;5084282;28;45327;-78
2023/01/02 02:18:31;;;;;;;;;2.00;2.00;;;;;14.42;100.00;100945.41;5085288;28;45554;-78
2023/01/02 02:21:31;;;;;;;;;2.67;1.00;;;;;14.30;100.00;100943.25;5084761;28;46183;-78
2023/01/02 02:24:09;;;;;;;;;4.00;4.00;;;;;14.39;100.00;100951.94;5043107;28;45813;-78
2023/01/02 02:26:37;;;;;;;;;3.33;2.00;;;;;14.38;100.00;100955.66;5086222;28;45305;-79
2023/01/02 02:29:17;;;;;;;;;2.33;2.33;;;;;14.35;100.00;100950.69;5086941;28;45386;-78
2023/01/02 02:32:01;;;;;;;;;4.00;3.00;;;;;14.32;100.00;100954.59;5075710;28;46229;-78
2023/01/02 02:35:05;;;;;;;;;2.33;2.33;;;;;14.27;100.00;100965.84;5086091;28;45290;-78
2023/01/02 02:37:55;;;;;;;;;0.67;0.00;;;;;14.24;100.00;100965.41;5084425;28;45326;-78
2023/01/02 02:40:47;;;;;;;;;1.67;1.67;;;;;14.20;100.00;100973.00;5063868;28;46029;-77
2023/01/02 02:43:35;;;;;;;;;5.00;3.67;;;;;14.12;100.00;100965.09;5085962;28;46731;-78
2023/01/02 02:46:13;;;;;;;;;3.00;2.33;;;;;14.10;100.00;100972.50;5092984;28;45304;-78
2023/01/02 02:48:55;;;;;;;;;2.00;2.00;;;;;14.09;100.00;100957.47;5075708;28;45441;-79
2023/01/02 02:51:42;;;;;;;;;3.00;3.00;;;;;14.07;100.00;100956.84;5073752;28;46574;-78
2023/01/02 02:54:18;;;;;;;;;5.00;3.00;;;;;13.97;100.00;100933.94;5092587;28;45444;-78
2023/01/02 02:56:45;;;;;;;;;3.67;3.00;;;;;14.07;100.00;100948.84;5080581;28;45400;-78
2023/01/02 02:59:11;;;;;;;;;3.67;3.33;;;;;13.95;100.00;100932.50;5080654;28;45271;-78
2023/01/02 03:01:37;;;;;;;;;3.67;3.33;;;;;13.94;100.00;100945.00;5090249;28;45217;-78
2023/01/02 03:04:07;;;;;;;;;4.00;4.00;;;;;14.00;100.00;100951.44;5080700;28;46969;-79
2023/01/02 03:06:49;;;;;;;;;3.00;3.00;;;;;14.02;100.00;100957.44;5103582;27;45519;-79
2023/01/02 03:09:21;;;;;;;;;2.00;2.00;;;;;14.02;100.00;100960.09;5079622;28;45238;-78
2023/01/02 03:12:08;;;;;;;;;3.67;3.67;;;;;13.99;100.00;100977.34;5078415;28;46275;-78
2023/01/02 03:15:01;;;;;;;;;4.67;3.67;;;;;13.98;100.00;100980.22;5092102;28;46602;-78
2023/01/02 03:17:32;;;;;;;;;3.33;3.33;;;;;14.03;100.00;100976.97;5090184;28;45322;-77
2023/01/02 03:20:05;;;;;;;;;5.67;5.00;;;;;14.03;100.00;100976.97;5087741;28;45386;-78
2023/01/02 03:22:35;;;;;;;;;4.00;4.00;;;;;13.99;100.00;100972.00;5085036;28;45317;-78
2023/01/02 03:25:03;;;;;;;;;3.33;3.33;;;;;13.91;100.00;100969.44;5084673;28;46505;-77
2023/01/02 03:27:33;;;;;;;;;4.00;3.00;;;;;13.84;100.00;100964.06;5084084;28;45204;-77
2023/01/02 03:30:04;;;;;;;;;3.00;3.00;;;;;13.92;100.00;100976.44;5086234;28;45667;-78
2023/01/02 03:32:34;;;;;;;;;3.00;3.00;;;;;13.82;100.00;100965.22;5065227;28;46554;-78
2023/01/02 03:35:05;;;;;;;;;4.00;4.00;;;;;13.84;100.00;100957.88;5065210;28;47791;-78
2023/01/02 03:37:33;;;;;;;;;4.00;3.00;;;;;13.80;100.00;100944.06;5065457;28;45364;-77
2023/01/02 03:40:12;;;;;;;;;5.00;4.00;;;;;13.87;100.00;100965.50;5083943;28;45370;-78
2023/01/02 03:42:45;;;;;;;;;2.67;1.33;;;;;13.91;100.00;100980.13;5084661;28;45232;-78
2023/01/02 03:45:34;;;;;;;;;2.33;2.33;;;;;13.76;100.00;100977.50;5064486;28;47737;-77
2023/01/02 03:48:06;;;;;;;;;3.67;2.33;;;;;13.84;100.00;100992.59;5084817;28;45331;-77
2023/01/02 03:50:53;;;;;;;;;3.00;1.33;;;;;13.76;100.00;100975.69;5084820;28;45250;-77
2023/01/02 03:53:20;;;;;;;;;4.67;4.67;;;;;13.84;100.00;100989.94;5086438;28;45399;-78
2023/01/02 03:56:31;;;;;;;;;3.33;2.33;;;;;13.83;100.00;100990.94;5066500;28;47323;-78
2023/01/02 03:59:16;;;;;;;;;4.00;3.00;;;;;13.80;100.00;101002.81;5053612;28;45268;-78
2023/01/02 04:01:54;;;;;;;;;2.00;2.00;;;;;13.85;100.00;101015.63;5068623;28;45274;-77
2023/01/02 04:04:25;;;;;;;;;3.33;3.33;;;;;13.83;100.00;101005.13;5086352;28;45478;-78
2023/01/02 04:06:57;;;;;;;;;3.00;3.00;;;;;13.82;100.00;101010.66;5084899;27;46572;-78
2023/01/02 04:09:26;;;;;;;;;3.67;3.67;;;;;13.79;100.00;101008.34;5084747;28;45268;-76
2023/01/02 04:12:06;;;;;;;;;5.33;4.00;;;;;13.61;100.00;100980.22;5069182;28;45296;-77
2023/01/02 04:14:46;;;;;;;;;1.67;1.67;;;;;13.75;100.00;101006.09;5088426;28;45449;-78
2023/01/02 04:17:15;;;;;;;;;5.00;4.33;;;;;13.73;100.00;101004.59;5069875;28;46585;-78
2023/01/02 04:19:46;;;;;;;;;3.00;3.00;;;;;13.62;100.00;101006.75;5085424;28;45326;-77
2023/01/02 04:22:25;;;;;;;;;2.00;2.00;;;;;13.54;100.00;100995.34;5081971;28;45461;-77
2023/01/02 04:25:13;;;;;;;;;4.33;3.00;;;;;13.50;100.00;101011.75;5082531;28;45298;-77
2023/01/02 04:27:52;;;;;;;;;2.00;2.00;;;;;13.57;100.00;101005.66;5064530;28;47281;-77
2023/01/02 04:30:18;;;;;;;;;4.00;2.33;;;;;13.67;100.00;101024.88;5064055;28;45244;-77
2023/01/02 04:32:44;;;;;;;;;2.00;2.00;;;;;13.66;100.00;101025.91;5064088;28;45629;-78
2023/01/02 04:35:15;;;;;;;;;2.33;2.33;;;;;13.53;100.00;100994.50;5062080;28;46000;-78
2023/01/02 04:37:42;;;;;;;;;1.00;1.00;;;;;13.63;100.00;101029.78;5054868;28;47144;-77
2023/01/02 04:40:29;;;;;;;;;1.00;1.00;;;;;13.64;100.00;101022.59;5065206;28;45305;-78
2023/01/02 04:42:55;;;;;;;;;2.00;2.00;;;;;13.62;100.00;101041.47;5082599;28;45296;-77
2023/01/02 04:45:21;;;;;;;;;1.67;1.67;;;;;13.58;100.00;101034.00;5063431;28;47447;-78
2023/01/02 04:47:47;;;;;;;;;2.00;2.00;;;;;13.57;100.00;101032.38;5081577;28;45403;-77
2023/01/02 04:50:13;;;;;;;;;1.33;1.00;;;;;13.51;100.00;101036.63;5081323;28;45393;-77
2023/01/02 04:52:38;;;;;;;;;0.00;0.00;;;;;13.53;100.00;101044.44;5081494;28;45373;-77
2023/01/02 04:55:08;;;;;;;;;1.00;1.00;;;;;13.54;100.00;101054.94;5081065;28;45473;-77
2023/01/02 04:57:34;;;;;;;;;1.00;1.00;;;;;13.51;100.00;101063.31;5081009;28;45364;-77
2023/01/02 04:59:59;;;;;;;;;2.33;1.33;;;;;13.48;100.00;101064.50;5081216;28;45355;-77
2023/01/02 05:02:25;;;;;;;;;1.33;1.33;;;;;13.45;100.00;101074.69;5063274;28;45472;-77
2023/01/02 05:04:50;;;;;;;;;0.00;0.00;;;;;13.33;100.00;101061.00;5081247;28;45320;-77
2023/01/02 05:07:15;;;;;;;;;1.00;1.00;;;;;13.41;100.00;101070.75;5081053;28;45320;-76
2023/01/02 05:09:41;;;;;;;;;1.00;1.00;;;;;13.36;100.00;101068.63;5062620;28;45248;-77
2023/01/02 05:12:06;;;;;;;;;0.33;0.33;;;;;13.30;100.00;101077.38;5080802;28;45426;-77
2023/01/02 05:14:32;;;;;;;;;1.33;0.67;;;;;13.27;100.00;101075.91;5062572;28;46150;-77
2023/01/02 05:16:57;;;;;;;;;2.00;2.00;;;;;13.33;100.00;101087.69;5080835;28;46241;-77
2023/01/02 05:19:22;;;;;;;;;2.33;1.33;;;;;13.25;100.00;101092.09;5062590;28;45372;-76
2023/01/02 05:24:31;;;;;;;;;0.00;0.00;;;;;13.25;100.00;101121.47;5080808;28;45549;-75
2023/01/02 05:26:57;;;;;;;;;0.33;0.33;;;;;13.16;100.00;101111.03;5062221;28;47274;-77
2023/01/02 05:29:22;;;;;;;;;0.00;0.00;;;;;13.15;100.00;101120.91;5080702;28;45318;-76
2023/01/02 05:31:47;;;;;;;;;1.33;0.00;;;;;13.05;100.00;101110.47;5080482;28;45387;-76
2023/01/02 05:34:14;;;;;;;;;0.33;0.33;;;;;13.09;100.00;101130.47;5080672;28;45295;-77
2023/01/02 05:36:40;;;;;;;;;0.00;0.00;;;;;13.00;100.00;101121.69;5080481;28;45429;-77
2023/01/02 05:39:07;;;;;;;;;0.00;0.00;;;;;13.03;100.00;101131.19;5080662;28;45315;-77
2023/01/02 05:41:33;;;;;;;;;0.00;0.00;;;;;13.07;100.00;101140.50;5062134;28;45292;-76
2023/01/02 05:43:58;;;;;;;;;0.00;0.00;;;;;12.98;100.00;101133.56;5080098;28;45460;-76
2023/01/02 05:46:23;;;;;;;;;0.00;0.00;;;;;12.97;100.00;101142.59;5062043;28;47361;-77
2023/01/02 05:48:49;;;;;;;;;0.00;0.00;;;;;12.95;100.00;101161.44;5080558;28;45236;-76
2023/01/02 05:51:16;;;;;;;;;0.00;0.00;;;;;12.85;100.00;101159.03;5080453;28;45351;-77
2023/01/02 05:53:42;;;;;;;;;0.00;0.00;;;;;12.77;100.00;101158.22;5080471;28;45568;-77
2023/01/02 05:56:20;;;;;;;;;0.00;0.00;;;;;12.81;100.00;101168.38;5079936;28;46609;-77
2023/01/02 05:58:47;;;;;;;;;0.00;0.00;;;;;12.67;100.00;101147.81;5080410;28;45275;-77
2023/01/02 06:01:15;;;;;;;;;0.00;0.00;;;;;12.76;100.00;101170.75;5080263;28;45227;-77
2023/01/02 06:03:52;;;;;;;;;0.00;0.00;;;;;12.76;100.00;101170.75;5080343;28;45536;-77
2023/01/02 06:06:19;;;;;;;;;0.00;0.00;;;;;12.74;100.00;101180.75;5084968;27;45469;-77
2023/01/02 06:08:44;;;;;;;;;0.00;0.00;;;;;12.66;100.00;101165.66;5086933;27;45335;-77
2023/01/02 06:11:10;;;;;;;;;0.00;0.00;;;;;12.71;100.00;101175.78;5079966;28;45394;-76
2023/01/02 06:13:37;;;;;;;;;0.00;0.00;;;;;12.66;100.00;101175.50;5080018;28;45445;-76
2023/01/02 06:16:04;;;;;;;;;1.33;0.00;;;;;12.65;100.00;101184.50;5079874;28;45335;-76
2023/01/02 06:18:32;;;;;;;;;0.00;0.00;;;;;12.55;100.00;101176.72;5061779;28;45363;-76
2023/01/02 06:21:03;;;;;;;;;0.00;0.00;;;;;12.60;100.00;101199.19;5061577;28;45387;-76
2023/01/02 06:23:28;;;;;;;;;0.00;0.00;;;;;12.55;100.00;101190.91;5079893;28;45303;-76
2023/01/02 06:25:54;;;;;;;;;0.00;0.00;;;;;12.39;100.00;101170.50;5061316;28;46998;-77
2023/01/02 06:28:20;;;;;;;;;0.00;0.00;;;;;12.58;100.00;101209.22;5061553;28;45810;-76
2023/01/02 06:30:45;;;;;;;;;0.00;0.00;;;;;12.46;100.00;101191.94;5079577;28;45363;-77
2023/01/02 06:33:10;;;;;;;;;0.00;0.00;;;;;12.56;100.00;101213.88;5079624;28;45315;-76
2023/01/02 06:35:36;;;;;;;;;0.00;0.00;;;;;12.47;100.00;101206.94;5079550;28;45298;-76
2023/01/02 06:38:01;;;;;;;;;0.00;0.00;;;;;12.50;100.00;101220.75;5061549;28;45737;-76
2023/01/02 06:40:26;;;;;;;;;0.00;0.00;;;;;12.41;100.00;101211.13;5079570;28;45425;-77
2023/01/02 06:42:52;;;;;;;;;2.67;0.00;;;;;12.45;100.00;101217.78;5061068;28;47216;-76
2023/01/02 06:45:17;;;;;;;;;1.00;0.00;;;;;12.48;100.00;101243.28;5078873;28;45361;-76
2023/01/02 06:47:42;;;;;;;;;1.67;0.00;;;;;12.41;100.00;101237.78;5079662;28;45327;-76
2023/01/02 06:50:08;;;;;;;;;0.00;0.00;;;;;12.36;100.00;101229.47;5061323;28;45362;-76
2023/01/02 06:52:34;;;;;;;;;0.67;0.00;;;;;12.40;100.00;101245.97;5061327;28;45996;-76
2023/01/02 06:54:59;;;;;;;;;0.00;0.00;;;;;12.33;100.00;101236.00;5079328;28;45599;-76
2023/01/02 06:57:27;;;;;;;;;0.00;0.00;;;;;12.32;100.00;101238.81;5079833;28;45377;-77
2023/01/02 06:59:53;;;;;;;;;0.00;0.00;;;;;12.33;100.00;101245.84;5073918;28;45399;-77
2023/01/02 07:02:18;;;;;;;;;0.00;0.00;;;;;12.27;100.00;101241.19;5071674;28;45219;-76
2023/01/02 07:04:43;;;;;;;;;0.00;0.00;;;;;12.21;100.00;101237.41;5079144;28;46400;-76
2023/01/02 07:07:09;;;;;;;;;0.00;0.00;;;;;12.25;100.00;101250.19;5091842;27;45333;-77
2023/01/02 07:09:34;;;;;;;;;0.00;0.00;;;;;12.24;100.00;101247.69;5062572;28;45312;-77
2023/01/02 07:11:59;;;;;;;;;0.00;0.00;;;;;12.21;100.00;101254.19;5060889;28;46084;-77
2023/01/02 07:14:25;;;;;;;;;0.00;0.00;;;;;12.27;100.00;101266.00;5078963;28;46009;-77
2023/01/02 07:16:50;;;;;;;;;0.00;0.00;;;;;12.22;100.00;101260.38;5061001;28;45984;-77
2023/01/02 07:19:16;;;;;;;;;1.00;1.00;;;;;12.21;100.00;101248.88;5077172;28;45173;-76
2023/01/02 07:21:41;;;;;;;;;0.33;0.33;;;;;12.19;100.00;101255.38;5078990;28;45492;-77
2023/01/02 07:24:16;;;;;;;;;1.00;1.00;;;;;12.22;100.00;101250.53;5060515;28;48145;-76
2023/01/02 07:26:41;;;;;;;;;3.00;3.00;;;;;12.08;100.00;101217.44;5060476;28;45833;-77
2023/01/02 07:29:07;;;;;;;;;4.00;3.00;;;;;12.15;100.00;101224.75;5078881;28;45476;-76
2023/01/02 07:31:32;;;;;;;;;4.00;4.00;;;;;12.18;100.00;101233.22;5078827;28;45428;-77
2023/01/02 07:33:58;;;;;;;;;3.00;3.00;;;;;12.04;100.00;101223.25;5078669;28;45803;-77
2023/01/02 07:36:23;;;;;;;;;5.33;5.00;;;;;12.03;100.00;101230.41;5060738;28;45359;-77
2023/01/02 07:38:53;;;;;;;;;5.00;5.00;;;;;12.16;100.00;101245.91;5078804;28;45452;-77
2023/01/02 07:41:22;;;;;;;;;2.00;2.00;;;;;12.10;100.00;101243.94;5060565;28;46311;-77
2023/01/02 07:43:48;;;;;;;;;2.00;2.00;;;;;12.16;100.00;101272.56;5073967;27;45877;-77
2023/01/02 07:46:16;;;;;;;;;1.00;1.00;;;;;12.16;100.00;101275.22;5063673;28;45728;-76
2023/01/02 07:48:42;;;;;;;;;3.00;3.00;;;;;12.09;100.00;101266.25;5060768;28;45325;-76
2023/01/02 07:51:08;;;;;;;;;4.00;4.00;;;;;12.11;100.00;101280.22;5060424;28;46035;-76
2023/01/02 07:53:34;;;;;;;;;3.33;3.33;;;;;12.08;100.00;101268.06;5060601;28;47234;-76
2023/01/02 07:56:00;;;;;;;;;2.00;2.00;;;;;12.12;100.00;101279.19;5078436;28;45369;-76
2023/01/02 07:58:26;;;;;;;;;1.00;1.00;;;;;12.09;100.00;101274.25;5062974;28;45316;-77
2023/01/02 08:00:52;;;;;;;;;0.00;0.00;;;;;12.07;100.00;101278.91;5082260;28;45375;-76
2023/01/02 08:03:18;;;;;;;;;0.00;0.00;;;;;11.80;100.00;101248.97;5047311;28;48094;-78
2023/01/02 08:05:43;;;;;;;;;0.00;0.00;;;;;11.91;100.00;101263.78;5075461;27;45227;-80
2023/01/02 08:08:08;;;;;;;;;1.00;1.00;;;;;12.00;100.00;101306.19;5082763;28;45359;-78
2023/01/02 08:10:36;;;;;;;;;2.00;0.00;;;;;11.90;100.00;101284.22;5081554;28;45272;-77
2023/01/02 08:13:01;;;;;;;;;2.00;0.00;;;;;12.00;100.00;101316.84;5063634;28;47135;-77
2023/01/02 08:15:26;;;;;;;;;0.00;0.00;;;;;11.85;100.00;101308.72;5081932;28;45236;-78
2023/01/02 08:17:52;;;;;;;;;0.00;0.00;;;;;11.90;100.00;101304.69;5081852;28;45226;-78
2023/01/02 08:20:18;;;;;;;;;1.33;1.33;;;;;11.95;100.00;101315.69;5062788;28;46396;-78
2023/01/02 08:22:43;;;;;;;;;1.00;1.00;;;;;11.83;100.00;101316.03;5081646;28;46110;-78
2023/01/02 08:25:09;;;;;;;;;0.33;0.33;;;;;11.83;100.00;101309.88;5081872;28;45338;-77
2023/01/02 08:27:34;;;;;;;;;0.00;0.00;;;;;11.91;100.00;101325.84;5081360;28;45460;-76
2023/01/02 08:30:00;;;;;;;;;0.00;0.00;;;;;11.83;100.00;101316.03;5081958;28;45376;-77
2023/01/02 08:32:25;;;;;;;;;0.00;0.00;;;;;11.94;100.00;101335.34;5061383;28;48350;-78
2023/01/02 08:34:50;;;;;;;;;0.00;0.00;;;;;11.86;100.00;101328.19;5075462;28;45682;-78
2023/01/02 08:37:16;;;;;;;;;0.00;0.00;;;;;11.86;100.00;101334.34;5075155;28;45318;-77
2023/01/02 08:39:41;;;;;;;;;0.00;0.00;;;;;11.86;100.00;101334.34;5092329;27;45615;-77
2023/01/02 08:42:07;;;;;;;;;0.67;0.67;;;;;11.80;100.00;101327.03;5081001;28;45351;-81
2023/01/02 08:44:33;;;;;;;;;2.67;2.00;;;;;11.88;100.00;101344.81;5081199;28;45838;-77
2023/01/02 08:46:59;;;;;;;;;2.00;2.00;;;;;11.77;100.00;101321.22;5063186;28;45484;-77
2023/01/02 08:49:24;;;;;;;;;0.00;0.00;;;;;11.86;100.00;101342.31;5081199;28;45318;-77
2023/01/02 08:51:49;;;;;;;;;2.00;2.00;;;;;11.84;100.00;101347.00;5080694;28;46210;-76
2023/01/02 08:54:15;;;;;;;;;2.33;1.33;;;;;11.86;100.00;101350.31;5062501;28;45368;-76
2023/01/02 08:56:41;;;;;;;;;4.33;3.00;;;;;11.91;100.00;101357.00;5071359;27;45427;-76
2023/01/02 08:59:09;;;;;;;;;2.00;1.33;;;;;11.99;100.00;101381.78;5078943;28;45621;-76
2023/01/02 09:01:35;;;;;;;;;2.33;2.33;;;;;11.99;100.00;101388.94;5048666;28;47932;-75
2023/01/02 09:04:02;;;;;;;;;4.00;4.00;;;;;12.04;100.00;101410.59;5080077;28;45327;-76
2023/01/02 09:06:30;;;;;;;;;0.00;0.00;;;;;12.01;100.00;101421.59;5086597;27;45265;-75
2023/01/02 09:08:57;;;;;;;;;0.67;0.67;;;;;12.02;100.00;101444.56;5066689;28;46148;-75
2023/01/02 09:11:31;;;;;;;;;1.00;1.00;;;;;12.01;100.00;101445.56;5055061;28;46998;-75
2023/01/02 09:13:59;;;;;;;;;0.00;0.00;;;;;11.95;100.00;101447.06;5075290;27;45457;-75
2023/01/02 09:16:25;;;;;;;;;0.00;0.00;;;;;11.96;100.00;101451.38;5070137;27;45403;-76
2023/01/02 09:18:51;;;;;;;;;2.00;2.00;;;;;12.04;100.00;101466.53;5084331;27;45513;-76
2023/01/02 09:21:17;;;;;;;;;1.00;1.00;;;;;12.00;100.00;101462.53;5079936;28;46686;-77
2023/01/02 09:23:42;;;;;;;;;0.00;0.00;;;;;12.02;100.00;101465.03;5079673;28;45649;-75
2023/01/02 09:26:10;;;;;;;;;0.33;0.33;;;;;11.95;100.00;101460.38;5079509;28;45943;-76
2023/01/02 09:28:36;;;;;;;;;2.00;0.67;;;;;11.99;100.00;101461.72;5079411;28;45573;-75
2023/01/02 09:31:10;;;;;;;;;0.33;0.00;;;;;11.98;100.00;101457.34;5076466;28;46030;-75
2023/01/02 09:33:35;;;;;;;;;0.33;0.33;;;;;11.96;100.00;101450.53;5059306;28;45665;-76
2023/01/02 09:36:06;;;;;;;;;1.00;1.00;;;;;12.06;100.00;101475.19;5075638;28;45838;-75
2023/01/02 09:38:32;;;;;;;;;2.00;2.00;;;;;11.96;100.00;101461.19;5061916;27;47814;-75
2023/01/02 09:41:00;;;;;;;;;0.00;0.00;;;;;12.01;100.00;101474.88;5077858;28;45421;-75
2023/01/02 09:43:40;;;;;;;;;3.00;1.00;;;;;11.99;100.00;101480.34;5068055;27;45556;-75
2023/01/02 09:46:16;;;;;;;;;1.00;1.00;;;;;11.97;100.00;101481.50;5087231;27;45336;-75
2023/01/02 09:48:42;;;;;;;;;1.00;1.00;;;;;12.07;100.00;101490.22;5075778;28;45537;-76
2023/01/02 09:51:11;;;;;;;;;1.00;1.00;;;;;12.20;100.00;101504.88;5059997;28;48274;-75
2023/01/02 09:53:36;;;;;;;;;0.33;0.33;;;;;12.19;100.00;101498.72;5060297;28;45377;-76
2023/01/02 09:56:12;;;;;;;;;0.00;0.00;;;;;12.20;100.00;101499.53;5057506;28;45622;-76
2023/01/02 09:59:22;;;;;;;;;0.00;0.00;;;;;12.20;100.00;101519.03;5077302;28;45387;-76
2023/01/02 10:02:32;;;;;;;;;0.00;0.00;;;;;12.17;100.00;101532.69;5063135;28;46747;-76
2023/01/02 10:05:16;;;;;;;;;1.00;1.00;;;;;12.19;100.00;101535.19;5077954;27;45437;-77
2023/01/02 10:08:10;;;;;;;;;1.00;1.00;;;;;12.20;100.00;101548.34;5060999;28;45552;-79
2023/01/02 10:10:45;;;;;;;;;2.00;0.67;;;;;12.15;100.00;101540.00;5076172;28;45375;-74
2023/01/02 10:13:22;;;;;;;;;1.00;1.00;;;;;12.22;100.00;101565.00;5055651;28;47460;-75
2023/01/02 10:15:49;;;;;;;;;1.00;1.00;;;;;12.22;100.00;101565.00;5080367;27;45346;-75
2023/01/02 10:18:34;;;;;;;;;1.33;1.00;;;;;12.22;100.00;101569.50;5077859;27;45339;-75
2023/01/02 10:21:13;;;;;;;;;1.67;1.67;;;;;12.23;100.00;101549.84;5054132;28;47513;-75
2023/01/02 10:23:47;;;;;;;;;1.33;1.33;;;;;12.19;100.00;101545.84;5077365;28;46327;-76
2023/01/02 10:26:17;;;;;;;;;1.00;1.00;;;;;12.23;100.00;101558.69;5081042;28;45290;-78
2023/01/02 10:28:56;;;;;;;;;2.00;2.00;;;;;12.24;100.00;101552.34;5066031;28;45476;-78
2023/01/02 10:31:28;;;;;;;;;3.00;2.00;;;;;12.00;100.00;101545.09;5079375;28;45553;-79
2023/01/02 10:34:02;;;;;;;;;1.00;1.00;;;;;12.00;100.00;101551.28;5065314;28;48351;-78
2023/01/02 10:36:30;;;;;;;;;2.67;2.67;;;;;11.93;100.00;101536.97;5074315;28;45696;-77
2023/01/02 10:38:58;;;;;;;;;2.33;1.67;;;;;11.89;100.00;101521.47;5066225;28;45425;-77
2023/01/02 10:41:25;;;;;;;;;2.00;2.00;;;;;12.07;100.00;101511.53;5084321;28;45372;-80
2023/01/02 10:43:55;;;;;;;;;2.00;2.00;;;;;12.09;100.00;101490.88;5088137;28;45364;-77
2023/01/02 10:46:20;;;;;;;;;3.33;2.00;;;;;12.14;100.00;101508.19;5065213;28;45567;-81
2023/01/02 10:48:48;;;;;;;;;1.00;1.00;;;;;12.23;100.00;101533.84;5079793;28;45304;-77
2023/01/02 10:51:15;;;;;;;;;1.33;1.33;;;;;12.28;100.00;101538.69;5082981;28;45387;-77
2023/01/02 10:53:41;;;;;;;;;0.00;0.00;;;;;12.34;100.00;101546.88;5060549;28;46686;-78
2023/01/02 10:56:17;;;;;;;;;2.00;2.00;;;;;12.40;100.00;101545.38;5080825;28;45339;-79
2023/01/02 10:58:47;;;;;;;;;3.33;3.33;;;;;12.37;100.00;101541.19;5085912;28;45278;-80
2023/01/02 11:01:19;;;;;;;;;2.00;1.33;;;;;12.54;100.00;101561.69;5083424;28;45536;-78
2023/01/02 11:04:08;;;;;;;;;1.00;1.00;;;;;12.45;100.00;101552.88;5083271;28;45338;-77
2023/01/02 11:06:35;;;;;;;;;3.00;3.00;;;;;12.49;100.00;101576.34;5090503;27;45765;-79
2023/01/02 11:09:19;;;;;;;;;1.00;1.00;;;;;12.49;100.00;101579.00;5093384;27;45322;-79
2023/01/02 11:11:53;;;;;;;;;2.00;2.00;;;;;12.46;100.00;101574.03;5075309;28;47128;-78
2023/01/02 11:14:27;;;;;;;;;2.67;2.67;;;;;12.38;100.00;101560.69;5088736;28;45376;-79
2023/01/02 11:16:57;;;;;;;;;2.00;2.00;;;;;12.42;100.00;101570.00;5095263;28;45330;-80
2023/01/02 11:19:22;;;;;;;;;3.00;3.00;;;;;12.39;100.00;101575.66;5088733;28;45457;-80
2023/01/02 11:21:51;;;;;;;;;2.00;2.00;;;;;12.40;100.00;101582.69;5092584;28;45346;-80
2023/01/02 11:24:24;;;;;;;;;3.33;3.33;;;;;12.33;100.00;101584.34;5071121;28;47532;-78
2023/01/02 11:26:50;;;;;;;;;3.00;3.00;;;;;12.37;100.00;101602.50;5086280;28;45329;-79
2023/01/02 11:29:31;;;;;;;;;2.00;2.00;;;;;12.32;100.00;101596.84;5077959;28;45545;-78
2023/01/02 11:31:59;;;;;;;;;2.33;2.33;;;;;12.29;100.00;101583.00;5066938;28;46546;-78